sensor_id;sensor_type;location;lat;lon;timestamp;noise_LAeq;noise_LA_min;noise_LA_max;noise_LA01;noise_LA95
47923;Laerm;33688;44.354;9.228;2023-09-18T00:01:08;36.96;35.48;41.35;;
47923;Laerm;33688;44.354;9.228;2023-09-18T00:03:34;36.97;35.41;41.25;;
47923;Laerm;33688;44.354;9.228;2023-09-18T00:06:00;36.95;35.52;41.17;;
47923;Laerm;33688;44.354;9.228;2023-09-18T00:08:26;36.94;35.42;41.26;;
47923;Laerm;33688;44.354;9.228;2023-09-18T00:10:55;36.90;35.64;41.57;;
47923;Laerm;33688;44.354;9.228;2023-09-18T00:13:22;37.31;35.62;56.56;;
47923;Laerm;33688;44.354;9.228;2023-09-18T00:15:48;36.95;35.43;41.08;;
47923;Laerm;33688;44.354;9.228;2023-09-18T00:18:16;36.94;35.51;41.11;;
47923;Laerm;33688;44.354;9.228;2023-09-18T00:20:42;36.91;35.42;41.23;;
47923;Laerm;33688;44.354;9.228;2023-09-18T00:23:09;36.92;35.54;41.16;;
47923;Laerm;33688;44.354;9.228;2023-09-18T00:25:36;36.93;35.52;41.32;;
47923;Laerm;33688;44.354;9.228;2023-09-18T00:28:07;36.89;35.46;41.22;;
47923;Laerm;33688;44.354;9.228;2023-09-18T00:30:34;36.92;35.54;41.18;;
47923;Laerm;33688;44.354;9.228;2023-09-18T00:33:00;36.92;35.49;41.15;;
47923;Laerm;33688;44.354;9.228;2023-09-18T00:35:25;36.91;35.53;41.18;;
47923;Laerm;33688;44.354;9.228;2023-09-18T00:37:51;36.94;35.65;43.65;;
47923;Laerm;33688;44.354;9.228;2023-09-18T00:40:18;36.90;35.32;41.12;;
47923;Laerm;33688;44.354;9.228;2023-09-18T00:42:44;36.92;35.59;40.94;;
47923;Laerm;33688;44.354;9.228;2023-09-18T00:45:12;36.93;35.60;41.43;;
47923;Laerm;33688;44.354;9.228;2023-09-18T00:47:37;36.94;35.46;40.99;;
47923;Laerm;33688;44.354;9.228;2023-09-18T00:50:06;36.92;35.58;41.30;;
47923;Laerm;33688;44.354;9.228;2023-09-18T00:52:33;36.92;35.46;41.55;;
47923;Laerm;33688;44.354;9.228;2023-09-18T00:55:00;36.92;35.53;41.03;;
47923;Laerm;33688;44.354;9.228;2023-09-18T00:57:28;36.92;35.55;41.23;;
47923;Laerm;33688;44.354;9.228;2023-09-18T00:59:54;36.97;35.42;41.27;;
47923;Laerm;33688;44.354;9.228;2023-09-18T01:02:20;36.93;35.60;41.22;;
47923;Laerm;33688;44.354;9.228;2023-09-18T01:04:47;36.94;35.56;41.20;;
47923;Laerm;33688;44.354;9.228;2023-09-18T01:07:15;36.91;35.34;41.34;;
47923;Laerm;33688;44.354;9.228;2023-09-18T01:09:41;36.92;35.46;41.40;;
47923;Laerm;33688;44.354;9.228;2023-09-18T01:15:38;36.84;35.50;41.22;;
47923;Laerm;33688;44.354;9.228;2023-09-18T01:17:56;36.79;35.44;40.99;;
47923;Laerm;33688;44.354;9.228;2023-09-18T01:20:22;36.92;35.50;41.16;;
47923;Laerm;33688;44.354;9.228;2023-09-18T01:22:48;36.94;35.57;41.12;;
47923;Laerm;33688;44.354;9.228;2023-09-18T01:25:15;36.93;35.59;40.71;;
47923;Laerm;33688;44.354;9.228;2023-09-18T01:27:41;36.94;35.56;41.30;;
47923;Laerm;33688;44.354;9.228;2023-09-18T01:30:07;36.96;35.58;41.45;;
47923;Laerm;33688;44.354;9.228;2023-09-18T01:32:35;36.95;35.48;41.14;;
47923;Laerm;33688;44.354;9.228;2023-09-18T01:35:04;36.93;35.49;41.25;;
47923;Laerm;33688;44.354;9.228;2023-09-18T01:37:37;36.91;35.57;41.18;;
47923;Laerm;33688;44.354;9.228;2023-09-18T01:40:05;36.93;35.56;40.89;;
47923;Laerm;33688;44.354;9.228;2023-09-18T01:42:35;36.88;35.33;40.97;;
47923;Laerm;33688;44.354;9.228;2023-09-18T01:45:03;36.94;35.48;41.06;;
47923;Laerm;33688;44.354;9.228;2023-09-18T01:47:30;36.94;35.57;41.29;;
47923;Laerm;33688;44.354;9.228;2023-09-18T01:49:56;36.96;35.55;41.18;;
47923;Laerm;33688;44.354;9.228;2023-09-18T01:52:23;36.94;35.58;41.20;;
47923;Laerm;33688;44.354;9.228;2023-09-18T01:54:49;36.97;35.50;41.22;;
47923;Laerm;33688;44.354;9.228;2023-09-18T01:57:15;36.92;35.60;41.05;;
47923;Laerm;33688;44.354;9.228;2023-09-18T01:59:41;36.91;35.53;41.10;;
47923;Laerm;33688;44.354;9.228;2023-09-18T02:02:07;36.92;35.46;41.10;;
47923;Laerm;33688;44.354;9.228;2023-09-18T02:04:36;36.93;35.29;41.26;;
47923;Laerm;33688;44.354;9.228;2023-09-18T02:07:05;36.94;35.48;40.95;;
47923;Laerm;33688;44.354;9.228;2023-09-18T02:09:31;36.94;35.65;41.19;;
47923;Laerm;33688;44.354;9.228;2023-09-18T02:11:56;36.92;35.56;41.26;;
47923;Laerm;33688;44.354;9.228;2023-09-18T02:14:22;36.95;35.60;44.46;;
47923;Laerm;33688;44.354;9.228;2023-09-18T02:16:48;36.92;35.50;41.06;;
47923;Laerm;33688;44.354;9.228;2023-09-18T02:19:15;36.94;35.51;41.07;;
47923;Laerm;33688;44.354;9.228;2023-09-18T02:21:43;36.92;35.54;41.01;;
47923;Laerm;33688;44.354;9.228;2023-09-18T02:24:09;36.91;35.42;41.09;;
47923;Laerm;33688;44.354;9.228;2023-09-18T02:26:35;36.95;35.55;41.30;;
47923;Laerm;33688;44.354;9.228;2023-09-18T02:29:08;36.89;35.55;41.68;;
47923;Laerm;33688;44.354;9.228;2023-09-18T02:31:39;36.87;35.51;41.00;;
47923;Laerm;33688;44.354;9.228;2023-09-18T02:34:05;36.92;35.64;41.08;;
47923;Laerm;33688;44.354;9.228;2023-09-18T02:36:33;36.90;35.43;41.00;;
47923;Laerm;33688;44.354;9.228;2023-09-18T02:38:59;36.92;35.46;41.11;;
47923;Laerm;33688;44.354;9.228;2023-09-18T02:41:25;36.94;35.49;41.12;;
47923;Laerm;33688;44.354;9.228;2023-09-18T02:43:50;36.93;35.62;41.12;;
47923;Laerm;33688;44.354;9.228;2023-09-18T02:46:18;36.92;35.54;41.10;;
47923;Laerm;33688;44.354;9.228;2023-09-18T02:48:44;36.90;35.48;41.49;;
47923;Laerm;33688;44.354;9.228;2023-09-18T02:51:11;36.93;35.59;41.56;;
47923;Laerm;33688;44.354;9.228;2023-09-18T02:53:37;36.93;35.61;41.25;;
47923;Laerm;33688;44.354;9.228;2023-09-18T02:56:04;36.92;35.59;41.37;;
47923;Laerm;33688;44.354;9.228;2023-09-18T02:58:30;36.92;35.51;41.24;;
47923;Laerm;33688;44.354;9.228;2023-09-18T03:00:57;36.92;35.57;41.18;;
47923;Laerm;33688;44.354;9.228;2023-09-18T03:03:29;36.94;35.20;41.25;;
47923;Laerm;33688;44.354;9.228;2023-09-18T03:06:14;36.88;35.59;41.05;;
47923;Laerm;33688;44.354;9.228;2023-09-18T03:08:40;36.93;35.44;41.34;;
47923;Laerm;33688;44.354;9.228;2023-09-18T03:11:13;36.91;35.55;41.05;;
47923;Laerm;33688;44.354;9.228;2023-09-18T03:13:44;36.91;35.62;40.95;;
47923;Laerm;33688;44.354;9.228;2023-09-18T03:16:16;36.90;35.60;41.13;;
47923;Laerm;33688;44.354;9.228;2023-09-18T03:18:43;36.94;35.50;41.11;;
47923;Laerm;33688;44.354;9.228;2023-09-18T03:21:09;36.93;35.65;41.40;;
47923;Laerm;33688;44.354;9.228;2023-09-18T03:23:35;36.92;35.49;41.16;;
47923;Laerm;33688;44.354;9.228;2023-09-18T03:26:02;36.90;35.44;41.30;;
47923;Laerm;33688;44.354;9.228;2023-09-18T03:28:28;36.91;35.47;41.00;;
47923;Laerm;33688;44.354;9.228;2023-09-18T03:30:55;36.93;35.49;41.14;;
47923;Laerm;33688;44.354;9.228;2023-09-18T03:33:22;36.92;35.30;41.60;;
47923;Laerm;33688;44.354;9.228;2023-09-18T03:35:51;36.92;35.56;41.09;;
47923;Laerm;33688;44.354;9.228;2023-09-18T03:38:22;36.89;35.43;41.27;;
47923;Laerm;33688;44.354;9.228;2023-09-18T03:40:48;36.96;35.39;40.95;;
47923;Laerm;33688;44.354;9.228;2023-09-18T03:43:14;36.93;35.63;41.37;;
47923;Laerm;33688;44.354;9.228;2023-09-18T03:45:40;36.91;35.45;41.05;;
47923;Laerm;33688;44.354;9.228;2023-09-18T03:48:08;36.92;35.44;41.13;;
47923;Laerm;33688;44.354;9.228;2023-09-18T03:50:34;36.92;35.47;40.99;;
47923;Laerm;33688;44.354;9.228;2023-09-18T03:53:19;36.86;35.62;41.03;;
47923;Laerm;33688;44.354;9.228;2023-09-18T03:55:45;36.88;35.55;41.25;;
47923;Laerm;33688;44.354;9.228;2023-09-18T03:58:11;36.90;35.34;41.15;;
47923;Laerm;33688;44.354;9.228;2023-09-18T04:00:36;36.90;35.50;41.61;;
47923;Laerm;33688;44.354;9.228;2023-09-18T04:03:03;36.90;35.49;41.02;;
47923;Laerm;33688;44.354;9.228;2023-09-18T04:05:30;37.02;35.49;45.86;;
47923;Laerm;33688;44.354;9.228;2023-09-18T04:07:57;36.90;35.44;41.09;;
47923;Laerm;33688;44.354;9.228;2023-09-18T04:10:23;36.92;35.59;41.24;;
47923;Laerm;33688;44.354;9.228;2023-09-18T04:12:50;36.88;35.39;41.16;;
47923;Laerm;33688;44.354;9.228;2023-09-18T04:15:20;36.88;35.52;41.37;;
47923;Laerm;33688;44.354;9.228;2023-09-18T04:17:47;36.89;35.38;41.57;;
47923;Laerm;33688;44.354;9.228;2023-09-18T04:20:14;36.90;35.57;40.98;;
47923;Laerm;33688;44.354;9.228;2023-09-18T04:22:46;36.89;35.58;40.82;;
47923;Laerm;33688;44.354;9.228;2023-09-18T04:25:16;36.87;35.44;41.06;;
47923;Laerm;33688;44.354;9.228;2023-09-18T04:27:42;36.92;35.47;41.29;;
47923;Laerm;33688;44.354;9.228;2023-09-18T04:30:08;36.90;35.51;40.97;;
47923;Laerm;33688;44.354;9.228;2023-09-18T04:32:37;36.88;35.47;41.27;;
47923;Laerm;33688;44.354;9.228;2023-09-18T04:35:04;36.89;35.44;41.30;;
47923;Laerm;33688;44.354;9.228;2023-09-18T04:37:31;37.01;35.50;41.95;;
47923;Laerm;33688;44.354;9.228;2023-09-18T04:39:58;37.15;35.59;41.29;;
47923;Laerm;33688;44.354;9.228;2023-09-18T04:42:25;36.91;35.53;40.98;;
47923;Laerm;33688;44.354;9.228;2023-09-18T04:44:51;36.89;35.51;41.16;;
47923;Laerm;33688;44.354;9.228;2023-09-18T04:47:17;36.92;35.41;41.16;;
47923;Laerm;33688;44.354;9.228;2023-09-18T04:49:43;36.96;35.64;41.29;;
47923;Laerm;33688;44.354;9.228;2023-09-18T04:52:13;36.90;35.40;41.10;;
47923;Laerm;33688;44.354;9.228;2023-09-18T04:54:39;36.94;35.51;41.18;;
47923;Laerm;33688;44.354;9.228;2023-09-18T04:57:05;36.91;35.61;41.07;;
47923;Laerm;33688;44.354;9.228;2023-09-18T04:59:32;36.91;35.54;40.96;;
47923;Laerm;33688;44.354;9.228;2023-09-18T05:01:58;36.96;35.48;41.15;;
47923;Laerm;33688;44.354;9.228;2023-09-18T05:04:23;36.93;35.61;41.05;;
47923;Laerm;33688;44.354;9.228;2023-09-18T05:06:50;36.96;35.49;41.47;;
47923;Laerm;33688;44.354;9.228;2023-09-18T05:09:18;36.97;35.54;42.68;;
47923;Laerm;33688;44.354;9.228;2023-09-18T05:11:45;36.99;35.46;47.79;;
47923;Laerm;33688;44.354;9.228;2023-09-18T05:14:10;37.98;35.56;44.63;;
47923;Laerm;33688;44.354;9.228;2023-09-18T05:16:39;37.25;35.62;41.84;;
47923;Laerm;33688;44.354;9.228;2023-09-18T05:19:04;37.17;35.57;44.34;;
47923;Laerm;33688;44.354;9.228;2023-09-18T05:21:30;37.11;35.41;46.63;;
47923;Laerm;33688;44.354;9.228;2023-09-18T05:23:56;36.92;35.59;40.94;;
47923;Laerm;33688;44.354;9.228;2023-09-18T05:26:22;36.94;35.59;41.67;;
47923;Laerm;33688;44.354;9.228;2023-09-18T05:28:50;36.92;35.55;40.81;;
47923;Laerm;33688;44.354;9.228;2023-09-18T05:31:16;36.94;35.68;40.95;;
47923;Laerm;33688;44.354;9.228;2023-09-18T05:33:42;37.00;35.57;41.02;;
47923;Laerm;33688;44.354;9.228;2023-09-18T05:36:08;36.95;35.61;43.40;;
47923;Laerm;33688;44.354;9.228;2023-09-18T05:38:33;37.65;35.53;47.60;;
47923;Laerm;33688;44.354;9.228;2023-09-18T05:40:59;36.94;35.46;41.19;;
47923;Laerm;33688;44.354;9.228;2023-09-18T05:43:25;37.02;35.49;41.60;;
47923;Laerm;33688;44.354;9.228;2023-09-18T05:45:51;37.19;35.59;41.23;;
47923;Laerm;33688;44.354;9.228;2023-09-18T05:48:17;37.02;35.46;41.05;;
47923;Laerm;33688;44.354;9.228;2023-09-18T05:50:42;36.97;35.59;40.93;;
47923;Laerm;33688;44.354;9.228;2023-09-18T05:53:08;37.01;35.68;43.62;;
47923;Laerm;33688;44.354;9.228;2023-09-18T05:55:34;37.01;35.49;42.47;;
47923;Laerm;33688;44.354;9.228;2023-09-18T05:58:01;37.08;35.36;49.69;;
47923;Laerm;33688;44.354;9.228;2023-09-18T06:00:29;37.41;35.46;56.48;;
47923;Laerm;33688;44.354;9.228;2023-09-18T06:02:56;36.99;35.58;41.15;;
47923;Laerm;33688;44.354;9.228;2023-09-18T06:05:23;36.95;35.55;41.47;;
47923;Laerm;33688;44.354;9.228;2023-09-18T06:07:50;37.91;35.52;49.53;;
47923;Laerm;33688;44.354;9.228;2023-09-18T06:10:16;38.60;35.44;49.11;;
47923;Laerm;33688;44.354;9.228;2023-09-18T06:12:45;37.09;35.41;47.64;;
47923;Laerm;33688;44.354;9.228;2023-09-18T06:15:11;37.13;35.56;45.55;;
47923;Laerm;33688;44.354;9.228;2023-09-18T06:17:42;37.36;35.56;41.67;;
47923;Laerm;33688;44.354;9.228;2023-09-18T06:20:10;37.47;35.50;44.31;;
47923;Laerm;33688;44.354;9.228;2023-09-18T06:22:37;43.06;35.65;61.91;;
47923;Laerm;33688;44.354;9.228;2023-09-18T06:25:06;43.51;35.75;64.66;;
47923;Laerm;33688;44.354;9.228;2023-09-18T06:27:34;48.84;35.83;67.05;;
47923;Laerm;33688;44.354;9.228;2023-09-18T06:30:00;58.32;36.15;81.76;;
47923;Laerm;33688;44.354;9.228;2023-09-18T06:32:26;53.71;35.81;70.83;;
47923;Laerm;33688;44.354;9.228;2023-09-18T06:34:52;49.40;35.59;67.42;;
47923;Laerm;33688;44.354;9.228;2023-09-18T06:37:18;53.24;38.17;65.56;;
47923;Laerm;33688;44.354;9.228;2023-09-18T06:39:44;56.13;38.42;75.77;;
47923;Laerm;33688;44.354;9.228;2023-09-18T06:42:10;52.84;42.98;68.65;;
47923;Laerm;33688;44.354;9.228;2023-09-18T06:44:36;59.05;43.17;84.05;;
47923;Laerm;33688;44.354;9.228;2023-09-18T06:47:03;50.24;42.81;71.17;;
47923;Laerm;33688;44.354;9.228;2023-09-18T06:49:29;51.13;43.36;66.04;;
47923;Laerm;33688;44.354;9.228;2023-09-18T06:51:56;49.63;42.42;64.18;;
47923;Laerm;33688;44.354;9.228;2023-09-18T06:54:22;52.87;42.18;74.56;;
47923;Laerm;33688;44.354;9.228;2023-09-18T06:56:48;47.79;42.19;62.57;;
47923;Laerm;33688;44.354;9.228;2023-09-18T06:59:14;47.37;42.23;64.37;;
47923;Laerm;33688;44.354;9.228;2023-09-18T07:01:41;47.10;42.87;63.91;;
47923;Laerm;33688;44.354;9.228;2023-09-18T07:04:07;44.41;42.12;55.44;;
47923;Laerm;33688;44.354;9.228;2023-09-18T07:06:33;44.62;42.29;62.68;;
47923;Laerm;33688;44.354;9.228;2023-09-18T07:08:59;51.55;41.96;69.81;;
47923;Laerm;33688;44.354;9.228;2023-09-18T07:11:25;48.17;42.29;63.22;;
47923;Laerm;33688;44.354;9.228;2023-09-18T07:13:51;50.59;42.56;66.62;;
47923;Laerm;33688;44.354;9.228;2023-09-18T07:16:17;48.91;42.54;64.91;;
47923;Laerm;33688;44.354;9.228;2023-09-18T07:18:43;53.60;43.14;65.88;;
47923;Laerm;33688;44.354;9.228;2023-09-18T07:21:09;48.30;42.80;65.38;;
47923;Laerm;33688;44.354;9.228;2023-09-18T07:23:34;62.40;42.54;87.99;;
47923;Laerm;33688;44.354;9.228;2023-09-18T07:26:05;59.87;42.60;84.89;;
47923;Laerm;33688;44.354;9.228;2023-09-18T07:28:31;47.90;42.34;67.01;;
47923;Laerm;33688;44.354;9.228;2023-09-18T07:31:08;48.47;42.04;68.15;;
47923;Laerm;33688;44.354;9.228;2023-09-18T07:33:34;45.21;42.18;66.44;;
47923;Laerm;33688;44.354;9.228;2023-09-18T07:36:00;44.77;42.21;62.68;;
47923;Laerm;33688;44.354;9.228;2023-09-18T07:38:26;46.28;42.06;70.67;;
47923;Laerm;33688;44.354;9.228;2023-09-18T07:40:52;49.43;42.10;65.49;;
47923;Laerm;33688;44.354;9.228;2023-09-18T07:43:18;50.07;42.82;63.40;;
47923;Laerm;33688;44.354;9.228;2023-09-18T07:45:45;51.04;42.84;70.90;;
47923;Laerm;33688;44.354;9.228;2023-09-18T07:48:11;54.19;42.50;79.67;;
47923;Laerm;33688;44.354;9.228;2023-09-18T07:50:36;48.83;42.31;65.80;;
47923;Laerm;33688;44.354;9.228;2023-09-18T07:53:03;47.79;42.30;61.45;;
47923;Laerm;33688;44.354;9.228;2023-09-18T07:55:29;45.82;42.22;63.23;;
47923;Laerm;33688;44.354;9.228;2023-09-18T07:57:56;49.43;42.42;64.83;;
47923;Laerm;33688;44.354;9.228;2023-09-18T08:00:23;48.81;42.22;68.65;;
47923;Laerm;33688;44.354;9.228;2023-09-18T08:02:55;51.80;42.38;66.18;;
47923;Laerm;33688;44.354;9.228;2023-09-18T08:05:27;47.38;41.97;62.93;;
47923;Laerm;33688;44.354;9.228;2023-09-18T08:07:54;48.13;42.50;67.59;;
47923;Laerm;33688;44.354;9.228;2023-09-18T08:10:27;51.32;42.64;66.62;;
47923;Laerm;33688;44.354;9.228;2023-09-18T08:12:53;53.79;42.18;72.53;;
47923;Laerm;33688;44.354;9.228;2023-09-18T08:15:20;56.51;42.90;74.87;;
47923;Laerm;33688;44.354;9.228;2023-09-18T08:17:47;49.25;42.34;60.32;;
47923;Laerm;33688;44.354;9.228;2023-09-18T08:20:16;54.72;43.04;69.78;;
47923;Laerm;33688;44.354;9.228;2023-09-18T08:22:43;52.74;42.09;67.27;;
47923;Laerm;33688;44.354;9.228;2023-09-18T08:25:12;50.73;42.44;67.20;;
47923;Laerm;33688;44.354;9.228;2023-09-18T08:27:42;48.78;42.50;64.11;;
47923;Laerm;33688;44.354;9.228;2023-09-18T08:30:13;52.42;42.82;68.15;;
47923;Laerm;33688;44.354;9.228;2023-09-18T08:32:41;53.93;43.05;66.66;;
47923;Laerm;33688;44.354;9.228;2023-09-18T08:35:08;53.83;43.54;67.53;;
47923;Laerm;33688;44.354;9.228;2023-09-18T08:37:34;55.47;43.27;69.09;;
47923;Laerm;33688;44.354;9.228;2023-09-18T08:40:00;49.57;43.62;69.73;;
47923;Laerm;33688;44.354;9.228;2023-09-18T08:42:30;47.19;43.43;60.10;;
47923;Laerm;33688;44.354;9.228;2023-09-18T08:44:58;47.53;42.72;61.23;;
47923;Laerm;33688;44.354;9.228;2023-09-18T08:47:25;51.93;42.80;68.44;;
47923;Laerm;33688;44.354;9.228;2023-09-18T08:49:54;46.10;42.75;63.22;;
47923;Laerm;33688;44.354;9.228;2023-09-18T08:52:21;54.94;42.73;70.31;;
47923;Laerm;33688;44.354;9.228;2023-09-18T08:54:49;46.29;42.51;61.63;;
47923;Laerm;33688;44.354;9.228;2023-09-18T08:57:16;46.85;42.63;66.46;;
47923;Laerm;33688;44.354;9.228;2023-09-18T08:59:43;51.47;42.68;64.56;;
47923;Laerm;33688;44.354;9.228;2023-09-18T09:02:10;51.73;42.91;64.76;;
47923;Laerm;33688;44.354;9.228;2023-09-18T09:04:38;56.20;43.12;76.74;;
47923;Laerm;33688;44.354;9.228;2023-09-18T09:07:04;61.04;42.58;76.56;;
47923;Laerm;33688;44.354;9.228;2023-09-18T09:09:30;63.62;43.14;77.47;;
47923;Laerm;33688;44.354;9.228;2023-09-18T09:11:56;56.18;42.64;69.51;;
47923;Laerm;33688;44.354;9.228;2023-09-18T09:14:22;56.80;42.10;69.24;;
47923;Laerm;33688;44.354;9.228;2023-09-18T09:16:55;54.86;42.92;72.38;;
47923;Laerm;33688;44.354;9.228;2023-09-18T09:19:34;54.28;42.64;67.18;;
47923;Laerm;33688;44.354;9.228;2023-09-18T09:22:07;50.94;42.70;63.37;;
47923;Laerm;33688;44.354;9.228;2023-09-18T09:24:43;53.94;42.45;75.32;;
47923;Laerm;33688;44.354;9.228;2023-09-18T09:27:10;52.80;42.30;72.00;;
47923;Laerm;33688;44.354;9.228;2023-09-18T09:29:36;53.18;42.53;64.51;;
47923;Laerm;33688;44.354;9.228;2023-09-18T09:32:17;56.12;42.85;68.74;;
47923;Laerm;33688;44.354;9.228;2023-09-18T09:34:45;60.09;42.62;89.22;;
47923;Laerm;33688;44.354;9.228;2023-09-18T09:37:12;51.92;42.06;68.80;;
47923;Laerm;33688;44.354;9.228;2023-09-18T09:39:51;55.40;42.16;71.71;;
47923;Laerm;33688;44.354;9.228;2023-09-18T09:42:21;57.15;42.28;82.31;;
47923;Laerm;33688;44.354;9.228;2023-09-18T09:45:03;57.18;42.36;69.98;;
47923;Laerm;33688;44.354;9.228;2023-09-18T09:47:35;61.38;42.52;83.51;;
47923;Laerm;33688;44.354;9.228;2023-09-18T09:50:20;62.14;42.39;86.55;;
47923;Laerm;33688;44.354;9.228;2023-09-18T09:52:50;54.22;42.19;68.93;;
47923;Laerm;33688;44.354;9.228;2023-09-18T09:55:33;53.23;42.98;75.65;;
47923;Laerm;33688;44.354;9.228;2023-09-18T09:58:07;64.74;43.68;79.72;;
47923;Laerm;33688;44.354;9.228;2023-09-18T10:00:43;62.22;43.99;78.97;;
47923;Laerm;33688;44.354;9.228;2023-09-18T10:03:11;46.99;44.36;64.26;;
47923;Laerm;33688;44.354;9.228;2023-09-18T10:05:41;46.23;44.54;55.43;;
47923;Laerm;33688;44.354;9.228;2023-09-18T10:08:27;49.31;44.24;61.96;;
47923;Laerm;33688;44.354;9.228;2023-09-18T10:11:06;52.72;44.54;68.21;;
47923;Laerm;33688;44.354;9.228;2023-09-18T10:14:04;47.05;43.79;65.24;;
47923;Laerm;33688;44.354;9.228;2023-09-18T10:16:34;46.86;44.14;64.87;;
47923;Laerm;33688;44.354;9.228;2023-09-18T10:22:25;48.87;44.43;71.32;;
47923;Laerm;33688;44.354;9.228;2023-09-18T10:25:07;58.07;44.37;79.28;;
47923;Laerm;33688;44.354;9.228;2023-09-18T10:27:37;49.60;44.37;67.85;;
47923;Laerm;33688;44.354;9.228;2023-09-18T10:30:09;51.59;43.47;76.80;;
47923;Laerm;33688;44.354;9.228;2023-09-18T10:32:42;46.50;43.13;63.06;;
47923;Laerm;33688;44.354;9.228;2023-09-18T10:35:11;49.05;44.19;69.02;;
47923;Laerm;33688;44.354;9.228;2023-09-18T10:37:38;50.32;43.34;76.38;;
47923;Laerm;33688;44.354;9.228;2023-09-18T10:40:06;53.60;44.61;71.99;;
47923;Laerm;33688;44.354;9.228;2023-09-18T10:42:37;48.38;44.46;70.18;;
47923;Laerm;33688;44.354;9.228;2023-09-18T10:45:04;48.74;38.18;68.35;;
47923;Laerm;33688;44.354;9.228;2023-09-18T10:47:31;45.28;40.77;65.66;;
47923;Laerm;33688;44.354;9.228;2023-09-18T10:49:58;41.72;37.86;61.40;;
47923;Laerm;33688;44.354;9.228;2023-09-18T10:52:24;42.37;38.01;57.97;;
47923;Laerm;33688;44.354;9.228;2023-09-18T10:54:50;42.46;40.38;56.61;;
47923;Laerm;33688;44.354;9.228;2023-09-18T10:57:16;44.91;38.15;61.83;;
47923;Laerm;33688;44.354;9.228;2023-09-18T10:59:46;42.30;38.15;56.11;;
47923;Laerm;33688;44.354;9.228;2023-09-18T11:02:16;42.95;40.36;64.37;;
47923;Laerm;33688;44.354;9.228;2023-09-18T11:04:44;42.49;37.65;62.64;;
47923;Laerm;33688;44.354;9.228;2023-09-18T11:07:21;41.57;37.97;53.91;;
47923;Laerm;33688;44.354;9.228;2023-09-18T11:09:48;40.12;37.42;47.37;;
47923;Laerm;33688;44.354;9.228;2023-09-18T11:12:17;40.88;37.96;46.92;;
47923;Laerm;33688;44.354;9.228;2023-09-18T11:14:57;46.14;40.06;68.96;;
47923;Laerm;33688;44.354;9.228;2023-09-18T11:17:40;43.03;37.87;66.46;;
47923;Laerm;33688;44.354;9.228;2023-09-18T11:20:23;42.40;38.72;56.52;;
47923;Laerm;33688;44.354;9.228;2023-09-18T11:22:59;42.70;37.87;63.50;;
47923;Laerm;33688;44.354;9.228;2023-09-18T11:28:16;41.96;38.19;63.77;;
47923;Laerm;33688;44.354;9.228;2023-09-18T11:30:54;41.45;37.90;51.75;;
47923;Laerm;33688;44.354;9.228;2023-09-18T11:33:34;41.68;40.17;58.24;;
47923;Laerm;33688;44.354;9.228;2023-09-18T11:36:13;40.36;37.80;57.58;;
47923;Laerm;33688;44.354;9.228;2023-09-18T11:38:59;42.99;38.19;63.35;;
47923;Laerm;33688;44.354;9.228;2023-09-18T11:41:32;40.61;37.92;52.01;;
47923;Laerm;33688;44.354;9.228;2023-09-18T11:46:45;40.87;37.83;53.29;;
47923;Laerm;33688;44.354;9.228;2023-09-18T11:49:11;40.80;38.25;50.91;;
47923;Laerm;33688;44.354;9.228;2023-09-18T11:51:37;45.11;37.99;66.29;;
47923;Laerm;33688;44.354;9.228;2023-09-18T11:54:07;42.08;40.32;59.17;;
47923;Laerm;33688;44.354;9.228;2023-09-18T11:56:33;41.27;40.03;49.88;;
47923;Laerm;33688;44.354;9.228;2023-09-18T11:58:59;42.07;38.12;60.82;;
47923;Laerm;33688;44.354;9.228;2023-09-18T12:01:30;45.16;39.10;70.38;;
47923;Laerm;33688;44.354;9.228;2023-09-18T12:04:00;40.24;38.34;51.77;;
47923;Laerm;33688;44.354;9.228;2023-09-18T12:06:26;42.70;40.45;61.47;;
47923;Laerm;33688;44.354;9.228;2023-09-18T12:08:54;41.25;37.93;59.13;;
47923;Laerm;33688;44.354;9.228;2023-09-18T12:11:22;41.66;38.19;58.89;;
47923;Laerm;33688;44.354;9.228;2023-09-18T12:13:52;41.58;40.20;57.47;;
47923;Laerm;33688;44.354;9.228;2023-09-18T12:16:18;40.90;37.84;49.94;;
47923;Laerm;33688;44.354;9.228;2023-09-18T12:18:48;43.61;37.95;63.35;;
47923;Laerm;33688;44.354;9.228;2023-09-18T12:21:16;43.49;37.88;63.99;;
47923;Laerm;33688;44.354;9.228;2023-09-18T12:23:45;45.24;38.15;65.71;;
47923;Laerm;33688;44.354;9.228;2023-09-18T12:26:16;43.22;38.06;59.06;;
47923;Laerm;33688;44.354;9.228;2023-09-18T12:28:44;41.93;38.01;60.11;;
47923;Laerm;33688;44.354;9.228;2023-09-18T12:31:11;52.86;40.59;67.35;;
47923;Laerm;33688;44.354;9.228;2023-09-18T12:33:39;56.13;38.65;79.10;;
47923;Laerm;33688;44.354;9.228;2023-09-18T12:36:07;46.26;38.57;61.82;;
47923;Laerm;33688;44.354;9.228;2023-09-18T12:38:33;52.89;40.62;80.73;;
47923;Laerm;33688;44.354;9.228;2023-09-18T12:41:38;58.86;43.41;78.46;;
47923;Laerm;33688;44.354;9.228;2023-09-18T12:44:05;64.46;42.80;81.51;;
47923;Laerm;33688;44.354;9.228;2023-09-18T12:46:32;66.65;44.21;83.54;;
47923;Laerm;33688;44.354;9.228;2023-09-18T12:48:59;63.05;43.64;81.60;;
47923;Laerm;33688;44.354;9.228;2023-09-18T12:51:43;47.49;43.66;68.67;;
47923;Laerm;33688;44.354;9.228;2023-09-18T12:54:10;49.33;43.99;76.03;;
47923;Laerm;33688;44.354;9.228;2023-09-18T12:56:42;48.75;43.69;74.09;;
47923;Laerm;33688;44.354;9.228;2023-09-18T12:59:09;45.55;43.30;58.32;;
47923;Laerm;33688;44.354;9.228;2023-09-18T13:01:36;51.71;43.18;81.09;;
47923;Laerm;33688;44.354;9.228;2023-09-18T13:04:04;46.22;43.40;59.88;;
47923;Laerm;33688;44.354;9.228;2023-09-18T13:06:31;50.19;42.75;65.69;;
47923;Laerm;33688;44.354;9.228;2023-09-18T13:09:18;49.64;44.08;65.67;;
47923;Laerm;33688;44.354;9.228;2023-09-18T13:11:53;47.52;44.10;55.07;;
47923;Laerm;33688;44.354;9.228;2023-09-18T13:14:19;46.91;42.94;61.88;;
47923;Laerm;33688;44.354;9.228;2023-09-18T13:16:45;48.78;43.21;63.68;;
47923;Laerm;33688;44.354;9.228;2023-09-18T13:19:12;50.79;42.84;76.89;;
47923;Laerm;33688;44.354;9.228;2023-09-18T13:21:37;46.43;43.95;60.72;;
47923;Laerm;33688;44.354;9.228;2023-09-18T13:24:07;45.95;42.91;60.49;;
47923;Laerm;33688;44.354;9.228;2023-09-18T13:26:33;48.94;43.96;73.37;;
47923;Laerm;33688;44.354;9.228;2023-09-18T13:28:58;46.80;43.75;56.67;;
47923;Laerm;33688;44.354;9.228;2023-09-18T13:31:24;59.47;42.63;81.49;;
47923;Laerm;33688;44.354;9.228;2023-09-18T13:33:50;58.32;42.48;79.36;;
47923;Laerm;33688;44.354;9.228;2023-09-18T13:36:18;57.22;42.72;79.92;;
47923;Laerm;33688;44.354;9.228;2023-09-18T13:38:44;45.88;44.08;54.20;;
47923;Laerm;33688;44.354;9.228;2023-09-18T13:41:10;46.35;43.22;57.31;;
47923;Laerm;33688;44.354;9.228;2023-09-18T13:43:37;48.12;44.00;63.10;;
47923;Laerm;33688;44.354;9.228;2023-09-18T13:46:03;46.39;43.87;60.83;;
47923;Laerm;33688;44.354;9.228;2023-09-18T13:48:32;45.79;42.26;59.49;;
47923;Laerm;33688;44.354;9.228;2023-09-18T13:50:59;48.46;44.05;66.66;;
47923;Laerm;33688;44.354;9.228;2023-09-18T13:53:25;46.87;42.84;66.02;;
47923;Laerm;33688;44.354;9.228;2023-09-18T13:55:55;47.08;44.03;59.67;;
47923;Laerm;33688;44.354;9.228;2023-09-18T13:58:23;61.37;43.06;79.00;;
47923;Laerm;33688;44.354;9.228;2023-09-18T14:00:59;55.94;44.19;69.42;;
47923;Laerm;33688;44.354;9.228;2023-09-18T14:03:28;53.14;43.73;67.55;;